ESNN

Sundsvall-Härnösand Airport

Sundsvall/ Härnösand, Sweden
METAR ESNN 190720Z AUTO VRB02KT 9999 NCD 26/13 Q1013
Observed Flight Rules
Jul-19 @ 07:20 UTC (15 minutes ago) Visual Flight Rules
Wind Visibility Clouds
Variable at 2 knots 10,000+ meters
  • Clear skies
Temperatures Readings
Current 26°C / 79°F
Dewpoint 13°C / 55°F
Humidity 45%
Altimeter 29.91" Hg
Pressure 1013 hPa
Elevation 10
METAR ESNN 190720Z AUTO VRB02KT 9999 NCD 26/13 Q1013
Observed Flight Rules
Jul-19 @ 07:20 UTC
(15 minutes ago)
VFR
Wind Visibility
Variable at 2 knots 10,000+ meters
Clouds
  • Clear skies
Temperature Dewpoint
26°C / 79°F 13°C / 55°F
Humidity Altimeter Pressure
45% 29.91" Hg 1013 hPa